Terminal Aerodrome Forecast
Issued by NWS Salt Lake City, UT

Home | Current Version | Previous Version | Text Only | Print | Product List | Glossary On
Versions: 1 2 3 4 5 6 7 8 9 10 11 12 13 14 15 16 17 18 19 20 21 22 23 24 25 26 27 28
000
FTUS45 KSLC 180905 AAB
TAFSLC
TAF AMD
KSLC 180905Z 1809/1912 17022G34KT P6SM SCT090 BKN150
     FM181700 18023G35KT P6SM VCSH SCT030 BKN060
     FM182100 29020G30KT 5SM -SHRASN SCT025 BKN040
     FM182300 30014G27KT 3/4SM -SN BR BKN006 OVC020
     FM190300 33011G18KT 2SM -SHSN BR BKN012 OVC025=

USA.gov is the U.S. government's official web portal to all federal, state and local government web resources and services.